sensor_id;sensor_type;location;lat;lon;timestamp;P1;durP1;ratioP1;P2;durP2;ratioP2
54795;SDS011;40693;43.884;20.340;2023-05-07T00:00:11;8.20;;;5.45;;
54795;SDS011;40693;43.884;20.340;2023-05-07T00:02:40;7.85;;;5.60;;
54795;SDS011;40693;43.884;20.340;2023-05-07T00:05:06;8.13;;;5.45;;
54795;SDS011;40693;43.884;20.340;2023-05-07T00:07:32;9.68;;;4.80;;
54795;SDS011;40693;43.884;20.340;2023-05-07T00:09:58;7.15;;;5.63;;
54795;SDS011;40693;43.884;20.340;2023-05-07T00:12:24;7.28;;;5.15;;
54795;SDS011;40693;43.884;20.340;2023-05-07T00:14:50;7.00;;;5.38;;
54795;SDS011;40693;43.884;20.340;2023-05-07T00:17:16;10.32;;;5.32;;
54795;SDS011;40693;43.884;20.340;2023-05-07T00:19:42;6.60;;;4.75;;
54795;SDS011;40693;43.884;20.340;2023-05-07T00:22:08;8.65;;;5.28;;
54795;SDS011;40693;43.884;20.340;2023-05-07T00:24:33;8.48;;;5.05;;
54795;SDS011;40693;43.884;20.340;2023-05-07T00:26:59;6.97;;;5.00;;
54795;SDS011;40693;43.884;20.340;2023-05-07T00:29:25;7.40;;;5.82;;
54795;SDS011;40693;43.884;20.340;2023-05-07T00:31:51;7.53;;;5.95;;
54795;SDS011;40693;43.884;20.340;2023-05-07T00:34:19;9.50;;;5.40;;
54795;SDS011;40693;43.884;20.340;2023-05-07T00:36:45;8.80;;;5.50;;
54795;SDS011;40693;43.884;20.340;2023-05-07T00:39:11;7.97;;;4.70;;
54795;SDS011;40693;43.884;20.340;2023-05-07T00:41:36;8.35;;;5.03;;
54795;SDS011;40693;43.884;20.340;2023-05-07T00:44:02;10.15;;;5.55;;
54795;SDS011;40693;43.884;20.340;2023-05-07T00:46:28;8.57;;;5.28;;
54795;SDS011;40693;43.884;20.340;2023-05-07T00:48:55;6.75;;;5.45;;
54795;SDS011;40693;43.884;20.340;2023-05-07T00:51:22;7.68;;;4.75;;
54795;SDS011;40693;43.884;20.340;2023-05-07T00:53:51;6.95;;;5.38;;
54795;SDS011;40693;43.884;20.340;2023-05-07T00:56:18;6.43;;;5.00;;
54795;SDS011;40693;43.884;20.340;2023-05-07T00:58:45;7.78;;;5.43;;
54795;SDS011;40693;43.884;20.340;2023-05-07T01:01:11;9.07;;;4.93;;
54795;SDS011;40693;43.884;20.340;2023-05-07T01:03:37;10.88;;;5.85;;
54795;SDS011;40693;43.884;20.340;2023-05-07T01:06:03;6.40;;;5.00;;
54795;SDS011;40693;43.884;20.340;2023-05-07T01:08:31;7.72;;;6.10;;
54795;SDS011;40693;43.884;20.340;2023-05-07T01:10:59;9.75;;;5.85;;
54795;SDS011;40693;43.884;20.340;2023-05-07T01:13:25;5.75;;;4.72;;
54795;SDS011;40693;43.884;20.340;2023-05-07T01:15:52;10.05;;;5.53;;
54795;SDS011;40693;43.884;20.340;2023-05-07T01:18:18;10.68;;;5.53;;
54795;SDS011;40693;43.884;20.340;2023-05-07T01:20:45;10.07;;;4.90;;
54795;SDS011;40693;43.884;20.340;2023-05-07T01:23:11;8.32;;;5.00;;
54795;SDS011;40693;43.884;20.340;2023-05-07T01:25:37;8.45;;;5.30;;
54795;SDS011;40693;43.884;20.340;2023-05-07T01:28:03;6.55;;;5.13;;
54795;SDS011;40693;43.884;20.340;2023-05-07T01:30:29;8.48;;;6.00;;
54795;SDS011;40693;43.884;20.340;2023-05-07T01:35:43;6.88;;;5.53;;
54795;SDS011;40693;43.884;20.340;2023-05-07T01:38:12;8.73;;;5.88;;
54795;SDS011;40693;43.884;20.340;2023-05-07T01:40:39;9.20;;;5.60;;
54795;SDS011;40693;43.884;20.340;2023-05-07T01:43:05;5.97;;;4.97;;
54795;SDS011;40693;43.884;20.340;2023-05-07T01:45:31;7.10;;;5.15;;
54795;SDS011;40693;43.884;20.340;2023-05-07T01:48:00;6.25;;;5.40;;
54795;SDS011;40693;43.884;20.340;2023-05-07T01:50:27;6.65;;;4.95;;
54795;SDS011;40693;43.884;20.340;2023-05-07T01:52:53;7.65;;;5.68;;
54795;SDS011;40693;43.884;20.340;2023-05-07T01:55:19;8.65;;;5.15;;
54795;SDS011;40693;43.884;20.340;2023-05-07T01:57:45;7.82;;;4.85;;
54795;SDS011;40693;43.884;20.340;2023-05-07T02:00:11;6.72;;;5.03;;
54795;SDS011;40693;43.884;20.340;2023-05-07T02:02:37;12.55;;;9.95;;
54795;SDS011;40693;43.884;20.340;2023-05-07T02:05:03;13.75;;;10.30;;
54795;SDS011;40693;43.884;20.340;2023-05-07T02:07:29;12.65;;;10.88;;
54795;SDS011;40693;43.884;20.340;2023-05-07T02:09:55;14.77;;;10.75;;
54795;SDS011;40693;43.884;20.340;2023-05-07T02:12:21;12.35;;;10.65;;
54795;SDS011;40693;43.884;20.340;2023-05-07T02:14:48;13.98;;;12.48;;
54795;SDS011;40693;43.884;20.340;2023-05-07T02:17:14;12.35;;;8.68;;
54795;SDS011;40693;43.884;20.340;2023-05-07T02:19:40;11.32;;;8.93;;
54795;SDS011;40693;43.884;20.340;2023-05-07T02:22:06;8.73;;;7.03;;
54795;SDS011;40693;43.884;20.340;2023-05-07T02:24:32;5.88;;;5.00;;
54795;SDS011;40693;43.884;20.340;2023-05-07T02:26:58;7.63;;;5.25;;
54795;SDS011;40693;43.884;20.340;2023-05-07T02:29:24;7.85;;;5.65;;
54795;SDS011;40693;43.884;20.340;2023-05-07T02:31:49;6.07;;;4.82;;
54795;SDS011;40693;43.884;20.340;2023-05-07T02:34:17;6.05;;;4.68;;
54795;SDS011;40693;43.884;20.340;2023-05-07T02:36:43;7.47;;;5.30;;
54795;SDS011;40693;43.884;20.340;2023-05-07T02:39:09;8.18;;;5.82;;
54795;SDS011;40693;43.884;20.340;2023-05-07T02:41:35;7.28;;;5.40;;
54795;SDS011;40693;43.884;20.340;2023-05-07T02:44:00;8.02;;;6.13;;
54795;SDS011;40693;43.884;20.340;2023-05-07T02:46:26;12.07;;;5.72;;
54795;SDS011;40693;43.884;20.340;2023-05-07T02:48:52;7.32;;;5.40;;
54795;SDS011;40693;43.884;20.340;2023-05-07T02:51:19;6.28;;;5.47;;
54795;SDS011;40693;43.884;20.340;2023-05-07T02:53:45;6.95;;;5.05;;
54795;SDS011;40693;43.884;20.340;2023-05-07T02:56:11;9.38;;;5.40;;
54795;SDS011;40693;43.884;20.340;2023-05-07T02:58:37;9.25;;;6.45;;
54795;SDS011;40693;43.884;20.340;2023-05-07T03:01:04;7.35;;;5.93;;
54795;SDS011;40693;43.884;20.340;2023-05-07T03:03:31;8.10;;;6.10;;
54795;SDS011;40693;43.884;20.340;2023-05-07T03:05:57;9.02;;;5.95;;
54795;SDS011;40693;43.884;20.340;2023-05-07T03:08:23;13.30;;;6.28;;
54795;SDS011;40693;43.884;20.340;2023-05-07T03:10:49;7.68;;;5.10;;
54795;SDS011;40693;43.884;20.340;2023-05-07T03:13:14;7.95;;;5.10;;
54795;SDS011;40693;43.884;20.340;2023-05-07T03:15:40;7.75;;;5.93;;
54795;SDS011;40693;43.884;20.340;2023-05-07T03:18:06;6.10;;;4.90;;
54795;SDS011;40693;43.884;20.340;2023-05-07T03:20:32;6.93;;;4.93;;
54795;SDS011;40693;43.884;20.340;2023-05-07T03:22:58;9.75;;;7.30;;
54795;SDS011;40693;43.884;20.340;2023-05-07T03:25:24;7.45;;;6.45;;
54795;SDS011;40693;43.884;20.340;2023-05-07T03:27:50;7.47;;;5.25;;
54795;SDS011;40693;43.884;20.340;2023-05-07T03:30:15;7.32;;;5.18;;
54795;SDS011;40693;43.884;20.340;2023-05-07T03:32:41;7.40;;;5.70;;
54795;SDS011;40693;43.884;20.340;2023-05-07T03:35:07;7.45;;;4.97;;
54795;SDS011;40693;43.884;20.340;2023-05-07T03:37:33;7.00;;;4.90;;
54795;SDS011;40693;43.884;20.340;2023-05-07T03:39:59;12.05;;;6.13;;
54795;SDS011;40693;43.884;20.340;2023-05-07T03:42:25;7.28;;;5.53;;
54795;SDS011;40693;43.884;20.340;2023-05-07T03:44:50;7.93;;;5.60;;
54795;SDS011;40693;43.884;20.340;2023-05-07T03:47:16;8.13;;;5.40;;
54795;SDS011;40693;43.884;20.340;2023-05-07T03:49:44;6.47;;;5.22;;
54795;SDS011;40693;43.884;20.340;2023-05-07T03:52:10;13.15;;;6.47;;
54795;SDS011;40693;43.884;20.340;2023-05-07T03:54:36;12.07;;;6.25;;
54795;SDS011;40693;43.884;20.340;2023-05-07T03:57:02;8.48;;;6.03;;
54795;SDS011;40693;43.884;20.340;2023-05-07T03:59:28;9.25;;;5.82;;
54795;SDS011;40693;43.884;20.340;2023-05-07T04:01:53;7.78;;;5.65;;
54795;SDS011;40693;43.884;20.340;2023-05-07T04:04:19;9.00;;;6.50;;
54795;SDS011;40693;43.884;20.340;2023-05-07T04:06:46;8.77;;;6.45;;
54795;SDS011;40693;43.884;20.340;2023-05-07T04:09:11;11.48;;;6.47;;
54795;SDS011;40693;43.884;20.340;2023-05-07T04:11:37;9.35;;;5.78;;
54795;SDS011;40693;43.884;20.340;2023-05-07T04:14:05;10.13;;;6.20;;
54795;SDS011;40693;43.884;20.340;2023-05-07T04:16:31;7.47;;;5.93;;
54795;SDS011;40693;43.884;20.340;2023-05-07T04:18:56;9.60;;;6.22;;
54795;SDS011;40693;43.884;20.340;2023-05-07T04:21:22;10.40;;;6.93;;
54795;SDS011;40693;43.884;20.340;2023-05-07T04:23:48;9.68;;;5.80;;
54795;SDS011;40693;43.884;20.340;2023-05-07T04:26:14;10.15;;;5.72;;
54795;SDS011;40693;43.884;20.340;2023-05-07T04:28:41;8.13;;;5.93;;
54795;SDS011;40693;43.884;20.340;2023-05-07T04:31:07;12.73;;;7.30;;
54795;SDS011;40693;43.884;20.340;2023-05-07T04:33:33;11.38;;;7.15;;
54795;SDS011;40693;43.884;20.340;2023-05-07T04:36:02;11.75;;;5.60;;
54795;SDS011;40693;43.884;20.340;2023-05-07T04:38:29;9.15;;;6.28;;
54795;SDS011;40693;43.884;20.340;2023-05-07T04:40:56;8.68;;;5.57;;
54795;SDS011;40693;43.884;20.340;2023-05-07T04:43:23;6.75;;;5.18;;
54795;SDS011;40693;43.884;20.340;2023-05-07T04:45:50;5.68;;;4.88;;
54795;SDS011;40693;43.884;20.340;2023-05-07T04:48:16;8.13;;;5.50;;
54795;SDS011;40693;43.884;20.340;2023-05-07T04:50:44;8.13;;;6.13;;
54795;SDS011;40693;43.884;20.340;2023-05-07T04:53:12;7.93;;;4.95;;
54795;SDS011;40693;43.884;20.340;2023-05-07T04:55:38;7.25;;;5.70;;
54795;SDS011;40693;43.884;20.340;2023-05-07T04:58:04;7.95;;;5.55;;
54795;SDS011;40693;43.884;20.340;2023-05-07T05:00:30;6.32;;;5.10;;
54795;SDS011;40693;43.884;20.340;2023-05-07T05:02:56;7.22;;;5.03;;
54795;SDS011;40693;43.884;20.340;2023-05-07T05:05:21;8.70;;;5.75;;
54795;SDS011;40693;43.884;20.340;2023-05-07T05:07:47;7.85;;;6.18;;
54795;SDS011;40693;43.884;20.340;2023-05-07T05:10:13;9.05;;;4.90;;
54795;SDS011;40693;43.884;20.340;2023-05-07T05:12:39;10.52;;;5.40;;
54795;SDS011;40693;43.884;20.340;2023-05-07T05:15:05;9.25;;;6.13;;
54795;SDS011;40693;43.884;20.340;2023-05-07T05:17:31;8.77;;;5.60;;
54795;SDS011;40693;43.884;20.340;2023-05-07T05:19:59;8.90;;;5.70;;
54795;SDS011;40693;43.884;20.340;2023-05-07T05:22:25;7.95;;;5.47;;
54795;SDS011;40693;43.884;20.340;2023-05-07T05:24:51;9.02;;;5.20;;
54795;SDS011;40693;43.884;20.340;2023-05-07T05:27:17;6.38;;;4.95;;
54795;SDS011;40693;43.884;20.340;2023-05-07T05:29:43;6.63;;;5.53;;
54795;SDS011;40693;43.884;20.340;2023-05-07T05:32:08;7.53;;;5.45;;
54795;SDS011;40693;43.884;20.340;2023-05-07T05:34:35;9.05;;;5.72;;
54795;SDS011;40693;43.884;20.340;2023-05-07T05:37:00;7.05;;;5.30;;
54795;SDS011;40693;43.884;20.340;2023-05-07T05:39:26;9.02;;;5.70;;
54795;SDS011;40693;43.884;20.340;2023-05-07T05:41:52;8.43;;;5.82;;
54795;SDS011;40693;43.884;20.340;2023-05-07T05:44:18;6.10;;;4.90;;
54795;SDS011;40693;43.884;20.340;2023-05-07T05:46:43;9.20;;;5.50;;
54795;SDS011;40693;43.884;20.340;2023-05-07T05:49:09;6.53;;;5.20;;
54795;SDS011;40693;43.884;20.340;2023-05-07T05:51:35;7.88;;;5.18;;
54795;SDS011;40693;43.884;20.340;2023-05-07T05:54:01;7.90;;;5.47;;
54795;SDS011;40693;43.884;20.340;2023-05-07T05:56:26;10.38;;;4.97;;
54795;SDS011;40693;43.884;20.340;2023-05-07T05:58:52;7.63;;;5.45;;
54795;SDS011;40693;43.884;20.340;2023-05-07T06:01:18;8.68;;;5.30;;
54795;SDS011;40693;43.884;20.340;2023-05-07T06:03:44;7.15;;;6.07;;
54795;SDS011;40693;43.884;20.340;2023-05-07T06:06:10;9.98;;;6.45;;
54795;SDS011;40693;43.884;20.340;2023-05-07T06:08:35;6.95;;;5.20;;
54795;SDS011;40693;43.884;20.340;2023-05-07T06:11:01;8.95;;;5.75;;
54795;SDS011;40693;43.884;20.340;2023-05-07T06:13:28;7.78;;;5.75;;
54795;SDS011;40693;43.884;20.340;2023-05-07T06:15:53;7.07;;;5.57;;
54795;SDS011;40693;43.884;20.340;2023-05-07T06:18:19;7.65;;;5.90;;
54795;SDS011;40693;43.884;20.340;2023-05-07T06:20:45;8.88;;;5.80;;
54795;SDS011;40693;43.884;20.340;2023-05-07T06:23:10;8.32;;;5.95;;
54795;SDS011;40693;43.884;20.340;2023-05-07T06:25:36;11.73;;;6.13;;
54795;SDS011;40693;43.884;20.340;2023-05-07T06:28:02;8.50;;;4.80;;
54795;SDS011;40693;43.884;20.340;2023-05-07T06:30:27;6.82;;;5.10;;
54795;SDS011;40693;43.884;20.340;2023-05-07T06:32:53;7.57;;;4.88;;
54795;SDS011;40693;43.884;20.340;2023-05-07T06:35:19;11.73;;;4.75;;
54795;SDS011;40693;43.884;20.340;2023-05-07T06:37:45;9.23;;;5.30;;
54795;SDS011;40693;43.884;20.340;2023-05-07T06:40:10;6.45;;;5.45;;
54795;SDS011;40693;43.884;20.340;2023-05-07T06:42:36;8.23;;;5.40;;
54795;SDS011;40693;43.884;20.340;2023-05-07T06:45:02;6.68;;;5.22;;
54795;SDS011;40693;43.884;20.340;2023-05-07T06:47:29;11.38;;;5.68;;
54795;SDS011;40693;43.884;20.340;2023-05-07T06:49:55;7.78;;;5.50;;
54795;SDS011;40693;43.884;20.340;2023-05-07T06:52:20;8.35;;;5.40;;
54795;SDS011;40693;43.884;20.340;2023-05-07T06:54:46;7.40;;;5.55;;
54795;SDS011;40693;43.884;20.340;2023-05-07T06:57:12;6.60;;;5.25;;
54795;SDS011;40693;43.884;20.340;2023-05-07T06:59:38;7.60;;;5.20;;
54795;SDS011;40693;43.884;20.340;2023-05-07T07:02:03;10.23;;;5.82;;
54795;SDS011;40693;43.884;20.340;2023-05-07T07:04:29;9.60;;;5.68;;
54795;SDS011;40693;43.884;20.340;2023-05-07T07:06:55;9.10;;;4.65;;
54795;SDS011;40693;43.884;20.340;2023-05-07T07:09:21;7.70;;;5.30;;
54795;SDS011;40693;43.884;20.340;2023-05-07T07:11:47;9.80;;;5.13;;
54795;SDS011;40693;43.884;20.340;2023-05-07T07:14:13;6.60;;;4.28;;
54795;SDS011;40693;43.884;20.340;2023-05-07T07:16:39;8.25;;;5.05;;
54795;SDS011;40693;43.884;20.340;2023-05-07T07:19:05;8.93;;;5.18;;
54795;SDS011;40693;43.884;20.340;2023-05-07T07:21:31;11.07;;;5.72;;
54795;SDS011;40693;43.884;20.340;2023-05-07T07:23:58;9.07;;;6.50;;
54795;SDS011;40693;43.884;20.340;2023-05-07T07:26:23;8.40;;;5.90;;
54795;SDS011;40693;43.884;20.340;2023-05-07T07:28:49;10.77;;;5.97;;
54795;SDS011;40693;43.884;20.340;2023-05-07T07:31:15;7.55;;;6.03;;
54795;SDS011;40693;43.884;20.340;2023-05-07T07:33:40;11.90;;;5.90;;
54795;SDS011;40693;43.884;20.340;2023-05-07T07:36:06;7.18;;;4.75;;
54795;SDS011;40693;43.884;20.340;2023-05-07T07:38:32;9.77;;;5.65;;
54795;SDS011;40693;43.884;20.340;2023-05-07T07:40:59;8.88;;;5.63;;
54795;SDS011;40693;43.884;20.340;2023-05-07T07:43:25;11.85;;;6.13;;
54795;SDS011;40693;43.884;20.340;2023-05-07T07:45:51;8.90;;;5.75;;
54795;SDS011;40693;43.884;20.340;2023-05-07T07:48:16;7.28;;;5.68;;
54795;SDS011;40693;43.884;20.340;2023-05-07T07:50:42;7.20;;;5.32;;
54795;SDS011;40693;43.884;20.340;2023-05-07T07:53:08;6.70;;;4.70;;
54795;SDS011;40693;43.884;20.340;2023-05-07T07:55:37;6.18;;;4.50;;
54795;SDS011;40693;43.884;20.340;2023-05-07T07:58:04;5.50;;;3.97;;
54795;SDS011;40693;43.884;20.340;2023-05-07T08:00:30;12.70;;;5.40;;
54795;SDS011;40693;43.884;20.340;2023-05-07T08:02:56;9.25;;;5.47;;
54795;SDS011;40693;43.884;20.340;2023-05-07T08:05:22;7.35;;;4.82;;
54795;SDS011;40693;43.884;20.340;2023-05-07T08:07:48;6.38;;;4.85;;
54795;SDS011;40693;43.884;20.340;2023-05-07T08:10:18;7.85;;;4.43;;
54795;SDS011;40693;43.884;20.340;2023-05-07T08:12:50;7.53;;;5.30;;
54795;SDS011;40693;43.884;20.340;2023-05-07T08:15:16;5.88;;;4.22;;
54795;SDS011;40693;43.884;20.340;2023-05-07T08:17:42;7.63;;;5.40;;
54795;SDS011;40693;43.884;20.340;2023-05-07T08:20:08;7.93;;;5.43;;
54795;SDS011;40693;43.884;20.340;2023-05-07T08:22:35;8.30;;;5.05;;
54795;SDS011;40693;43.884;20.340;2023-05-07T08:25:00;8.55;;;5.28;;
54795;SDS011;40693;43.884;20.340;2023-05-07T08:27:26;5.63;;;4.47;;
54795;SDS011;40693;43.884;20.340;2023-05-07T08:29:53;6.88;;;5.20;;
54795;SDS011;40693;43.884;20.340;2023-05-07T08:32:19;7.75;;;5.28;;
54795;SDS011;40693;43.884;20.340;2023-05-07T08:34:45;5.70;;;4.50;;
54795;SDS011;40693;43.884;20.340;2023-05-07T08:37:12;7.72;;;4.47;;
54795;SDS011;40693;43.884;20.340;2023-05-07T08:39:37;7.07;;;4.50;;
54795;SDS011;40693;43.884;20.340;2023-05-07T08:42:03;6.22;;;4.70;;
54795;SDS011;40693;43.884;20.340;2023-05-07T08:44:33;7.22;;;4.93;;
54795;SDS011;40693;43.884;20.340;2023-05-07T08:47:00;8.13;;;4.90;;
54795;SDS011;40693;43.884;20.340;2023-05-07T08:49:27;7.22;;;4.70;;
54795;SDS011;40693;43.884;20.340;2023-05-07T08:51:53;5.90;;;4.38;;
54795;SDS011;40693;43.884;20.340;2023-05-07T08:54:21;5.40;;;4.25;;
54795;SDS011;40693;43.884;20.340;2023-05-07T08:56:47;7.53;;;4.47;;
54795;SDS011;40693;43.884;20.340;2023-05-07T08:59:13;5.93;;;4.47;;
54795;SDS011;40693;43.884;20.340;2023-05-07T09:01:39;8.05;;;5.18;;
54795;SDS011;40693;43.884;20.340;2023-05-07T09:04:05;9.95;;;4.88;;
54795;SDS011;40693;43.884;20.340;2023-05-07T09:06:32;6.63;;;4.55;;
54795;SDS011;40693;43.884;20.340;2023-05-07T09:08:58;6.18;;;4.63;;
54795;SDS011;40693;43.884;20.340;2023-05-07T09:11:26;10.05;;;4.75;;
54795;SDS011;40693;43.884;20.340;2023-05-07T09:13:55;6.43;;;4.78;;
54795;SDS011;40693;43.884;20.340;2023-05-07T09:16:23;4.78;;;3.75;;
54795;SDS011;40693;43.884;20.340;2023-05-07T09:18:53;9.85;;;4.55;;
54795;SDS011;40693;43.884;20.340;2023-05-07T09:21:21;7.22;;;4.25;;
54795;SDS011;40693;43.884;20.340;2023-05-07T09:23:51;5.20;;;4.45;;
54795;SDS011;40693;43.884;20.340;2023-05-07T09:26:17;6.95;;;4.65;;
54795;SDS011;40693;43.884;20.340;2023-05-07T09:28:43;7.13;;;5.85;;
54795;SDS011;40693;43.884;20.340;2023-05-07T09:31:10;7.55;;;4.95;;
54795;SDS011;40693;43.884;20.340;2023-05-07T09:33:36;8.23;;;4.50;;
54795;SDS011;40693;43.884;20.340;2023-05-07T09:36:03;9.52;;;5.35;;
54795;SDS011;40693;43.884;20.340;2023-05-07T09:38:30;7.95;;;5.10;;
54795;SDS011;40693;43.884;20.340;2023-05-07T09:43:36;6.45;;;4.25;;
54795;SDS011;40693;43.884;20.340;2023-05-07T09:46:03;5.70;;;4.35;;
54795;SDS011;40693;43.884;20.340;2023-05-07T09:48:35;9.32;;;4.43;;
54795;SDS011;40693;43.884;20.340;2023-05-07T09:51:04;5.00;;;4.47;;
54795;SDS011;40693;43.884;20.340;2023-05-07T09:53:36;14.27;;;4.65;;
54795;SDS011;40693;43.884;20.340;2023-05-07T09:56:05;6.95;;;4.63;;
54795;SDS011;40693;43.884;20.340;2023-05-07T09:58:31;6.18;;;4.78;;
54795;SDS011;40693;43.884;20.340;2023-05-07T10:00:58;7.80;;;4.75;;
54795;SDS011;40693;43.884;20.340;2023-05-07T10:03:25;8.30;;;5.22;;
54795;SDS011;40693;43.884;20.340;2023-05-07T10:05:54;6.55;;;4.45;;
54795;SDS011;40693;43.884;20.340;2023-05-07T10:08:21;6.32;;;4.13;;
54795;SDS011;40693;43.884;20.340;2023-05-07T10:10:47;6.93;;;3.95;;
54795;SDS011;40693;43.884;20.340;2023-05-07T10:13:14;5.00;;;3.65;;
54795;SDS011;40693;43.884;20.340;2023-05-07T10:15:39;7.63;;;4.18;;
54795;SDS011;40693;43.884;20.340;2023-05-07T10:18:06;4.38;;;3.92;;
54795;SDS011;40693;43.884;20.340;2023-05-07T10:20:33;6.10;;;3.83;;
54795;SDS011;40693;43.884;20.340;2023-05-07T10:23:01;5.00;;;4.05;;
54795;SDS011;40693;43.884;20.340;2023-05-07T10:25:30;5.22;;;3.78;;
54795;SDS011;40693;43.884;20.340;2023-05-07T10:27:59;6.15;;;3.50;;
54795;SDS011;40693;43.884;20.340;2023-05-07T10:33:22;7.03;;;3.83;;
54795;SDS011;40693;43.884;20.340;2023-05-07T10:35:52;5.25;;;4.07;;
54795;SDS011;40693;43.884;20.340;2023-05-07T10:38:24;6.65;;;4.13;;
54795;SDS011;40693;43.884;20.340;2023-05-07T10:40:50;7.53;;;3.38;;
54795;SDS011;40693;43.884;20.340;2023-05-07T10:43:16;5.20;;;4.30;;
54795;SDS011;40693;43.884;20.340;2023-05-07T10:45:42;6.07;;;3.67;;
54795;SDS011;40693;43.884;20.340;2023-05-07T10:48:09;6.53;;;3.72;;
54795;SDS011;40693;43.884;20.340;2023-05-07T10:50:39;6.93;;;4.07;;
54795;SDS011;40693;43.884;20.340;2023-05-07T10:55:44;10.30;;;3.90;;
54795;SDS011;40693;43.884;20.340;2023-05-07T11:00:46;4.45;;;3.50;;
54795;SDS011;40693;43.884;20.340;2023-05-07T11:03:15;3.92;;;3.20;;
54795;SDS011;40693;43.884;20.340;2023-05-07T11:05:41;6.28;;;3.78;;
54795;SDS011;40693;43.884;20.340;2023-05-07T11:08:09;7.60;;;4.30;;
54795;SDS011;40693;43.884;20.340;2023-05-07T11:13:17;6.82;;;3.88;;
54795;SDS011;40693;43.884;20.340;2023-05-07T11:15:46;4.90;;;3.55;;
54795;SDS011;40693;43.884;20.340;2023-05-07T11:18:14;7.75;;;4.00;;
54795;SDS011;40693;43.884;20.340;2023-05-07T11:25:58;5.07;;;3.28;;
54795;SDS011;40693;43.884;20.340;2023-05-07T11:28:38;8.98;;;3.40;;
54795;SDS011;40693;43.884;20.340;2023-05-07T11:31:05;6.03;;;3.95;;
54795;SDS011;40693;43.884;20.340;2023-05-07T11:33:31;5.75;;;3.38;;
54795;SDS011;40693;43.884;20.340;2023-05-07T11:35:57;5.32;;;4.05;;
54795;SDS011;40693;43.884;20.340;2023-05-07T11:38:24;5.20;;;3.55;;
54795;SDS011;40693;43.884;20.340;2023-05-07T11:40:51;4.35;;;3.75;;
54795;SDS011;40693;43.884;20.340;2023-05-07T11:43:18;3.97;;;3.40;;
54795;SDS011;40693;43.884;20.340;2023-05-07T11:45:44;3.40;;;2.80;;
54795;SDS011;40693;43.884;20.340;2023-05-07T11:48:12;4.20;;;3.80;;
54795;SDS011;40693;43.884;20.340;2023-05-07T11:53:27;3.67;;;3.00;;
54795;SDS011;40693;43.884;20.340;2023-05-07T11:56:00;6.38;;;3.58;;
54795;SDS011;40693;43.884;20.340;2023-05-07T11:58:30;3.38;;;2.85;;
54795;SDS011;40693;43.884;20.340;2023-05-07T12:00:56;15.07;;;3.92;;
54795;SDS011;40693;43.884;20.340;2023-05-07T12:03:22;5.40;;;2.75;;
54795;SDS011;40693;43.884;20.340;2023-05-07T12:05:48;5.63;;;3.03;;
54795;SDS011;40693;43.884;20.340;2023-05-07T12:08:14;4.80;;;2.88;;
54795;SDS011;40693;43.884;20.340;2023-05-07T12:10:43;4.43;;;2.88;;
54795;SDS011;40693;43.884;20.340;2023-05-07T12:13:14;2.28;;;1.95;;
54795;SDS011;40693;43.884;20.340;2023-05-07T12:15:43;5.93;;;2.72;;
54795;SDS011;40693;43.884;20.340;2023-05-07T12:18:10;3.20;;;2.58;;
54795;SDS011;40693;43.884;20.340;2023-05-07T12:20:37;4.03;;;3.10;;
54795;SDS011;40693;43.884;20.340;2023-05-07T12:23:03;6.82;;;4.32;;
54795;SDS011;40693;43.884;20.340;2023-05-07T12:25:35;6.65;;;3.67;;
54795;SDS011;40693;43.884;20.340;2023-05-07T12:28:02;4.40;;;3.15;;
54795;SDS011;40693;43.884;20.340;2023-05-07T12:30:31;4.07;;;2.65;;
54795;SDS011;40693;43.884;20.340;2023-05-07T12:33:01;7.90;;;3.97;;
54795;SDS011;40693;43.884;20.340;2023-05-07T12:35:28;6.45;;;3.85;;
54795;SDS011;40693;43.884;20.340;2023-05-07T12:38:00;4.45;;;3.47;;
54795;SDS011;40693;43.884;20.340;2023-05-07T12:40:38;5.60;;;3.88;;
54795;SDS011;40693;43.884;20.340;2023-05-07T12:43:06;8.13;;;3.70;;
54795;SDS011;40693;43.884;20.340;2023-05-07T12:45:36;4.38;;;2.35;;
54795;SDS011;40693;43.884;20.340;2023-05-07T12:48:03;4.73;;;2.67;;
54795;SDS011;40693;43.884;20.340;2023-05-07T12:50:32;5.68;;;3.13;;
54795;SDS011;40693;43.884;20.340;2023-05-07T12:52:58;5.43;;;2.92;;
54795;SDS011;40693;43.884;20.340;2023-05-07T12:55:25;7.75;;;3.33;;
54795;SDS011;40693;43.884;20.340;2023-05-07T12:57:55;4.18;;;3.17;;
54795;SDS011;40693;43.884;20.340;2023-05-07T13:00:38;4.18;;;3.10;;
54795;SDS011;40693;43.884;20.340;2023-05-07T13:03:04;4.90;;;3.50;;
54795;SDS011;40693;43.884;20.340;2023-05-07T13:05:31;4.45;;;2.78;;
54795;SDS011;40693;43.884;20.340;2023-05-07T13:07:57;3.92;;;2.83;;
54795;SDS011;40693;43.884;20.340;2023-05-07T13:10:23;7.57;;;3.05;;
54795;SDS011;40693;43.884;20.340;2023-05-07T13:12:50;4.43;;;2.90;;
54795;SDS011;40693;43.884;20.340;2023-05-07T13:15:17;4.45;;;2.40;;
54795;SDS011;40693;43.884;20.340;2023-05-07T13:17:44;2.85;;;2.17;;
54795;SDS011;40693;43.884;20.340;2023-05-07T13:20:12;3.45;;;2.80;;
54795;SDS011;40693;43.884;20.340;2023-05-07T13:22:38;3.13;;;2.38;;
54795;SDS011;40693;43.884;20.340;2023-05-07T13:25:05;4.63;;;2.45;;
54795;SDS011;40693;43.884;20.340;2023-05-07T13:27:31;3.42;;;2.78;;
54795;SDS011;40693;43.884;20.340;2023-05-07T13:29:57;3.97;;;2.55;;
54795;SDS011;40693;43.884;20.340;2023-05-07T13:32:23;3.65;;;2.63;;
54795;SDS011;40693;43.884;20.340;2023-05-07T13:34:48;3.45;;;2.10;;
54795;SDS011;40693;43.884;20.340;2023-05-07T13:37:14;4.25;;;2.38;;
54795;SDS011;40693;43.884;20.340;2023-05-07T13:39:40;3.15;;;2.33;;
54795;SDS011;40693;43.884;20.340;2023-05-07T13:42:09;6.43;;;1.98;;
54795;SDS011;40693;43.884;20.340;2023-05-07T13:44:35;3.70;;;2.58;;
54795;SDS011;40693;43.884;20.340;2023-05-07T13:47:00;4.13;;;2.25;;
54795;SDS011;40693;43.884;20.340;2023-05-07T13:49:26;5.80;;;2.38;;
54795;SDS011;40693;43.884;20.340;2023-05-07T13:51:52;3.70;;;2.33;;
54795;SDS011;40693;43.884;20.340;2023-05-07T13:54:18;3.53;;;2.70;;
54795;SDS011;40693;43.884;20.340;2023-05-07T13:56:44;3.00;;;2.22;;
54795;SDS011;40693;43.884;20.340;2023-05-07T13:59:10;5.18;;;2.63;;
54795;SDS011;40693;43.884;20.340;2023-05-07T14:01:37;5.00;;;2.58;;
54795;SDS011;40693;43.884;20.340;2023-05-07T14:04:03;4.07;;;2.53;;
54795;SDS011;40693;43.884;20.340;2023-05-07T14:06:29;2.88;;;2.28;;
54795;SDS011;40693;43.884;20.340;2023-05-07T14:08:54;3.10;;;2.28;;
54795;SDS011;40693;43.884;20.340;2023-05-07T14:11:23;2.72;;;1.98;;
54795;SDS011;40693;43.884;20.340;2023-05-07T14:13:48;4.82;;;3.20;;
54795;SDS011;40693;43.884;20.340;2023-05-07T14:16:14;4.25;;;2.83;;
54795;SDS011;40693;43.884;20.340;2023-05-07T14:18:40;3.78;;;2.08;;
54795;SDS011;40693;43.884;20.340;2023-05-07T14:21:05;3.22;;;2.15;;
54795;SDS011;40693;43.884;20.340;2023-05-07T14:23:34;4.72;;;2.75;;
54795;SDS011;40693;43.884;20.340;2023-05-07T14:26:00;5.78;;;2.88;;
54795;SDS011;40693;43.884;20.340;2023-05-07T14:28:25;3.28;;;2.72;;
54795;SDS011;40693;43.884;20.340;2023-05-07T14:30:51;2.88;;;1.88;;
54795;SDS011;40693;43.884;20.340;2023-05-07T14:33:17;3.17;;;2.42;;
54795;SDS011;40693;43.884;20.340;2023-05-07T14:35:44;2.75;;;2.38;;
54795;SDS011;40693;43.884;20.340;2023-05-07T14:38:14;3.83;;;2.90;;
54795;SDS011;40693;43.884;20.340;2023-05-07T14:40:40;3.08;;;2.65;;
54795;SDS011;40693;43.884;20.340;2023-05-07T14:43:06;7.03;;;2.80;;
54795;SDS011;40693;43.884;20.340;2023-05-07T14:45:32;3.03;;;2.00;;
54795;SDS011;40693;43.884;20.340;2023-05-07T14:47:57;3.13;;;2.70;;
54795;SDS011;40693;43.884;20.340;2023-05-07T14:50:23;4.00;;;1.90;;
54795;SDS011;40693;43.884;20.340;2023-05-07T14:52:52;3.08;;;2.38;;